createdAt,value
2018-03-03T00:02:02.900Z,100828.64
2018-03-03T00:04:30.673Z,100831.05
2018-03-03T00:06:58.434Z,100830.98
2018-03-03T00:09:26.148Z,100823.30
2018-03-03T00:11:53.860Z,100823.61
2018-03-03T00:14:21.626Z,100824.80
2018-03-03T00:16:49.320Z,100824.42
2018-03-03T00:19:17.054Z,100824.80
2018-03-03T00:21:44.819Z,100828.09
2018-03-03T00:24:12.541Z,100827.58
2018-03-03T00:26:40.241Z,100825.08
2018-03-03T00:29:08.017Z,100829.21
2018-03-03T00:31:35.775Z,100825.45
2018-03-03T00:34:03.554Z,100828.81
2018-03-03T00:36:31.261Z,100832.03
2018-03-03T00:38:58.976Z,100828.64
2018-03-03T00:41:26.748Z,100818.11
2018-03-03T00:43:55.176Z,100816.41
2018-03-03T00:46:22.984Z,100811.23
2018-03-03T00:48:51.368Z,100809.38
2018-03-03T00:51:19.087Z,100814.17
2018-03-03T00:53:46.787Z,100808.27
2018-03-03T00:56:14.566Z,100814.85
2018-03-03T00:58:42.323Z,100811.58
2018-03-03T01:01:10.053Z,100816.73
2018-03-03T01:03:37.856Z,100812.31
2018-03-03T01:06:05.634Z,100819.33
2018-03-03T01:08:33.383Z,100813.27
2018-03-03T01:11:01.155Z,100820.19
2018-03-03T01:13:28.857Z,100817.17
2018-03-03T01:15:56.684Z,100823.20
2018-03-03T01:18:24.447Z,100820.41
2018-03-03T01:20:52.136Z,100827.48
2018-03-03T01:23:19.872Z,100828.13
2018-03-03T01:25:47.641Z,100825.46
2018-03-03T01:28:15.416Z,100825.39
2018-03-03T01:30:43.100Z,100829.43
2018-03-03T01:33:10.846Z,100827.73
2018-03-03T01:35:38.539Z,100824.72
2018-03-03T01:38:06.253Z,100828.76
2018-03-03T01:40:34.032Z,100826.72
2018-03-03T01:43:01.752Z,100829.50
2018-03-03T01:45:29.451Z,100829.81
2018-03-03T01:47:57.167Z,100825.82
2018-03-03T01:50:24.864Z,100820.64
2018-03-03T01:52:52.656Z,100826.74
2018-03-03T01:55:20.367Z,100821.16
2018-03-03T01:57:48.059Z,100830.51
2018-03-03T02:00:15.776Z,100826.08
2018-03-03T02:02:43.467Z,100824.16
2018-03-03T02:05:11.281Z,100826.56
2018-03-03T02:07:39.043Z,100826.05
2018-03-03T02:10:06.763Z,100830.89
2018-03-03T02:12:34.551Z,100827.08
2018-03-03T02:15:02.276Z,100822.34
2018-03-03T02:17:29.981Z,100826.40
2018-03-03T02:19:57.696Z,100824.98
2018-03-03T02:22:25.433Z,100824.10
2018-03-03T02:24:53.195Z,100828.16
2018-03-03T02:27:20.956Z,100818.86
2018-03-03T02:29:48.680Z,100812.47
2018-03-03T02:32:16.388Z,100816.13
2018-03-03T02:34:44.090Z,100819.38
2018-03-03T02:37:11.915Z,100808.81
2018-03-03T02:39:39.685Z,100809.19
2018-03-03T02:42:07.459Z,100812.23
2018-03-03T02:44:35.221Z,100812.56
2018-03-03T02:47:02.987Z,100810.53
2018-03-03T02:49:30.744Z,100817.58
2018-03-03T02:51:58.476Z,100811.62
2018-03-03T02:54:26.284Z,100812.27
2018-03-03T02:56:54.024Z,100816.33
2018-03-03T02:59:21.720Z,100812.41
2018-03-03T03:01:49.426Z,100812.78
2018-03-03T03:04:17.246Z,100802.70
2018-03-03T03:06:44.956Z,100798.40
2018-03-03T03:09:12.677Z,100799.14
2018-03-03T03:11:40.368Z,100801.92
2018-03-03T03:14:08.196Z,100804.36
2018-03-03T03:16:35.908Z,100805.44
2018-03-03T03:19:03.731Z,100814.20
2018-03-03T03:21:31.430Z,100819.52
2018-03-03T03:23:59.156Z,100821.14
2018-03-03T03:26:26.924Z,100810.15
2018-03-03T03:28:54.648Z,100810.89
2018-03-03T03:31:22.459Z,100806.97
2018-03-03T03:33:50.190Z,100800.10
2018-03-03T03:36:17.884Z,100788.77
2018-03-03T03:38:45.593Z,100791.14
2018-03-03T03:41:13.407Z,100789.78
2018-03-03T03:43:41.180Z,100783.02
2018-03-03T03:46:08.905Z,100770.41
2018-03-03T03:48:36.609Z,100775.20
2018-03-03T03:51:04.341Z,100777.48
2018-03-03T03:53:32.045Z,100782.02
2018-03-03T03:55:59.764Z,100774.47
2018-03-03T03:58:27.462Z,100767.47
2018-03-03T04:00:55.233Z,100771.88
2018-03-03T04:03:22.933Z,100771.27
2018-03-03T04:05:50.665Z,100774.00
2018-03-03T04:08:18.424Z,100770.95
2018-03-03T04:10:46.126Z,100772.14
2018-03-03T04:13:13.956Z,100779.20
2018-03-03T04:15:41.721Z,100774.47
2018-03-03T04:18:09.452Z,100770.28
2018-03-03T04:20:37.148Z,100771.97
2018-03-03T04:23:04.918Z,100768.52
2018-03-03T04:25:32.616Z,100770.22
2018-03-03T04:28:00.349Z,100768.86
2018-03-03T04:30:28.049Z,100768.42
2018-03-03T04:32:55.769Z,100768.66
2018-03-03T04:35:23.494Z,100773.77
2018-03-03T04:37:51.190Z,100760.88
2018-03-03T04:40:18.964Z,100773.59
2018-03-03T04:42:46.728Z,100772.03
2018-03-03T04:45:14.453Z,100768.11
2018-03-03T04:47:42.154Z,100769.23
2018-03-03T04:50:09.876Z,100765.75
2018-03-03T04:52:37.586Z,100768.11
2018-03-03T04:55:05.308Z,100769.70
2018-03-03T04:57:33.014Z,100766.32
2018-03-03T05:03:18.117Z,100764.70
2018-03-03T05:08:52.100Z,100766.52
2018-03-03T05:11:19.822Z,100768.52
2018-03-03T05:13:48.836Z,100767.91
2018-03-03T05:16:21.104Z,100763.34
2018-03-03T05:18:54.516Z,100766.72
2018-03-03T05:24:41.365Z,100769.56
2018-03-03T05:30:29.573Z,100772.57
2018-03-03T05:33:02.892Z,100771.25
2018-03-03T05:35:36.092Z,100774.39
2018-03-03T05:38:04.372Z,100772.70
2018-03-03T05:40:37.725Z,100770.47
2018-03-03T05:43:11.041Z,100767.09
2018-03-03T05:45:44.204Z,100764.02
2018-03-03T05:48:12.696Z,100766.85
2018-03-03T05:50:43.834Z,100765.60
2018-03-03T05:53:17.282Z,100770.98
2018-03-03T05:55:50.444Z,100768.67
2018-03-03T05:58:23.763Z,100778.00
2018-03-03T06:00:57.204Z,100773.47
2018-03-03T06:03:25.876Z,100775.72
2018-03-03T06:05:59.164Z,100775.92
2018-03-03T06:08:29.913Z,100779.94
2018-03-03T06:10:57.944Z,100781.20
2018-03-03T06:13:25.678Z,100782.92
2018-03-03T06:15:53.390Z,100795.12
2018-03-03T06:18:21.224Z,100798.60
2018-03-03T06:20:48.984Z,100799.48
2018-03-03T06:23:16.748Z,100804.62
2018-03-03T06:25:44.496Z,100804.36
2018-03-03T06:28:12.197Z,100800.37
2018-03-03T06:30:39.912Z,100798.11
2018-03-03T06:33:07.618Z,100794.30
2018-03-03T06:35:35.339Z,100801.84
2018-03-03T06:38:03.136Z,100804.45
2018-03-03T06:40:30.856Z,100800.80
2018-03-03T06:42:58.568Z,100794.42
2018-03-03T06:45:26.288Z,100788.20
2018-03-03T06:47:54.105Z,100788.95
2018-03-03T06:50:21.869Z,100791.18
2018-03-03T06:52:49.632Z,100792.20
2018-03-03T06:55:17.394Z,100790.67
2018-03-03T06:57:45.091Z,100787.97
2018-03-03T07:00:12.824Z,100786.10
2018-03-03T07:02:40.548Z,100783.25
2018-03-03T07:05:08.357Z,100785.41
2018-03-03T07:07:36.125Z,100784.33
2018-03-03T07:10:03.816Z,100777.89
2018-03-03T07:12:31.540Z,100782.54
2018-03-03T07:15:00.041Z,100772.70
2018-03-03T07:17:27.758Z,100771.55
2018-03-03T07:19:55.564Z,100775.25
2018-03-03T07:22:23.381Z,100775.06
2018-03-03T07:24:51.052Z,100782.73
2018-03-03T07:27:18.778Z,100783.80
2018-03-03T07:29:46.516Z,100790.88
2018-03-03T07:32:14.292Z,100792.43
2018-03-03T07:34:42.014Z,100795.66
2018-03-03T07:37:09.737Z,100799.44
2018-03-03T07:39:37.471Z,100792.66
2018-03-03T07:42:05.164Z,100793.52
2018-03-03T07:44:32.883Z,100769.27
2018-03-03T07:47:00.637Z,100767.17
2018-03-03T07:49:28.361Z,100772.48
2018-03-03T07:51:56.066Z,100776.59
2018-03-03T07:54:23.864Z,100781.96
2018-03-03T07:56:57.577Z,100778.91
2018-03-03T07:59:25.342Z,100780.06
2018-03-03T08:01:53.036Z,100778.16
2018-03-03T08:04:20.748Z,100772.57
2018-03-03T08:06:48.436Z,100773.17
2018-03-03T08:09:16.152Z,100771.78
2018-03-03T08:11:43.847Z,100775.80
2018-03-03T08:14:11.576Z,100782.32
2018-03-03T08:16:39.277Z,100776.64
2018-03-03T08:19:06.978Z,100767.94
2018-03-03T08:21:34.721Z,100776.88
2018-03-03T08:24:02.408Z,100774.05
2018-03-03T08:26:30.120Z,100768.40
2018-03-03T08:28:57.907Z,100767.73
2018-03-03T08:31:25.636Z,100769.68
2018-03-03T08:33:53.333Z,100765.63
2018-03-03T08:36:21.101Z,100764.61
2018-03-03T08:38:48.868Z,100768.72
2018-03-03T08:41:16.584Z,100765.84
2018-03-03T08:43:44.301Z,100757.98
2018-03-03T08:46:12.021Z,100759.26
2018-03-03T08:48:39.824Z,100760.05
2018-03-03T08:51:07.544Z,100756.28
2018-03-03T08:53:35.236Z,100759.25
2018-03-03T08:56:03.025Z,100763.07
2018-03-03T08:58:30.718Z,100759.29
2018-03-03T09:00:58.441Z,100755.55
2018-03-03T09:03:26.218Z,100753.41
2018-03-03T09:05:53.976Z,100756.30
2018-03-03T09:08:21.675Z,100753.19
2018-03-03T09:10:49.420Z,100759.42
2018-03-03T09:13:17.166Z,100753.88
2018-03-03T09:15:44.885Z,100749.24
2018-03-03T09:18:12.822Z,100746.24
2018-03-03T09:20:40.525Z,100747.33
2018-03-03T09:23:08.250Z,100748.53
2018-03-03T09:25:36.000Z,100749.86
2018-03-03T09:28:03.724Z,100754.55
2018-03-03T09:30:31.420Z,100748.78
2018-03-03T09:32:59.193Z,100749.32
2018-03-03T09:35:26.958Z,100748.21
2018-03-03T09:37:54.728Z,100740.16
2018-03-03T09:40:22.425Z,100738.58
2018-03-03T09:42:50.145Z,100735.76
2018-03-03T09:45:17.845Z,100734.64
2018-03-03T09:47:45.566Z,100731.25
2018-03-03T09:50:13.265Z,100735.58
2018-03-03T09:52:40.998Z,100736.94
2018-03-03T09:55:08.779Z,100737.12
2018-03-03T09:57:36.470Z,100746.34
2018-03-03T10:00:04.184Z,100749.61
2018-03-03T10:02:31.875Z,100745.24
2018-03-03T10:04:59.589Z,100745.47
2018-03-03T10:07:27.296Z,100741.79
2018-03-03T10:09:55.065Z,100738.94
2018-03-03T10:12:22.834Z,100740.77
2018-03-03T10:14:50.548Z,100734.50
2018-03-03T10:17:18.243Z,100734.14
2018-03-03T10:19:46.031Z,100734.17
2018-03-03T10:22:13.733Z,100733.02
2018-03-03T10:24:41.454Z,100725.41
2018-03-03T10:27:09.162Z,100724.24
2018-03-03T10:29:36.969Z,100724.70
2018-03-03T10:32:04.715Z,100726.45
2018-03-03T10:34:32.389Z,100731.52
2018-03-03T10:37:00.172Z,100737.12
2018-03-03T10:39:27.874Z,100735.03
2018-03-03T10:41:55.591Z,100727.67
2018-03-03T10:44:23.364Z,100728.70
2018-03-03T10:46:51.135Z,100720.55
2018-03-03T10:49:18.831Z,100720.88
2018-03-03T10:51:46.662Z,100717.83
2018-03-03T10:54:14.425Z,100713.35
2018-03-03T10:56:42.197Z,100706.50
2018-03-03T10:59:09.888Z,100705.08
2018-03-03T11:01:37.600Z,100713.05
2018-03-03T11:04:05.388Z,100712.54
2018-03-03T11:06:33.157Z,100707.78
2018-03-03T11:09:00.917Z,100703.86
2018-03-03T11:11:28.632Z,100703.38
2018-03-03T11:13:56.352Z,100700.84
2018-03-03T11:16:24.111Z,100699.02
2018-03-03T11:18:51.872Z,100694.91
2018-03-03T11:21:19.561Z,100698.79
2018-03-03T11:23:47.281Z,100690.29
2018-03-03T11:26:15.069Z,100684.57
2018-03-03T11:28:42.788Z,100684.00
2018-03-03T11:31:10.498Z,100684.75
2018-03-03T11:33:38.272Z,100684.26
2018-03-03T11:36:05.965Z,100681.30
2018-03-03T11:38:33.801Z,100674.85
2018-03-03T11:41:01.492Z,100679.00
2018-03-03T11:43:29.220Z,100677.48
2018-03-03T11:45:56.911Z,100684.03
2018-03-03T11:48:24.635Z,100683.19
2018-03-03T11:50:52.413Z,100674.05
2018-03-03T11:53:20.113Z,100675.91
2018-03-03T11:55:47.828Z,100671.08
2018-03-03T11:58:15.645Z,100668.44
2018-03-03T12:00:43.361Z,100673.67
2018-03-03T12:03:11.048Z,100669.61
2018-03-03T12:05:38.792Z,100669.47
2018-03-03T12:08:06.501Z,100666.31
2018-03-03T12:10:34.226Z,100661.81
2018-03-03T12:13:01.935Z,100659.09
2018-03-03T12:15:29.658Z,100659.38
2018-03-03T12:17:57.424Z,100652.80
2018-03-03T12:20:25.144Z,100656.95
2018-03-03T12:22:52.841Z,100646.77
2018-03-03T12:25:20.624Z,100641.97
2018-03-03T12:27:48.644Z,100638.38
2018-03-03T12:30:16.457Z,100636.04
2018-03-03T12:32:44.239Z,100642.91
2018-03-03T12:35:11.933Z,100641.02
2018-03-03T12:37:39.653Z,100642.94
2018-03-03T12:40:07.412Z,100638.09
2018-03-03T12:42:35.175Z,100645.17
2018-03-03T12:45:02.868Z,100639.39
2018-03-03T12:47:30.616Z,100645.75
2018-03-03T12:49:58.317Z,100647.86
2018-03-03T12:52:26.032Z,100643.60
2018-03-03T12:54:53.724Z,100644.08
2018-03-03T12:57:21.464Z,100635.56
2018-03-03T12:59:49.228Z,100640.36
2018-03-03T13:02:16.950Z,100637.42
2018-03-03T13:04:44.657Z,100635.34
2018-03-03T13:07:12.392Z,100634.33
2018-03-03T13:09:40.084Z,100636.48
2018-03-03T13:12:07.857Z,100638.29
2018-03-03T13:14:35.616Z,100631.63
2018-03-03T13:17:03.313Z,100624.47
2018-03-03T13:19:31.044Z,100633.55
2018-03-03T13:21:58.817Z,100630.23
2018-03-03T13:24:26.580Z,100636.23
2018-03-03T13:26:54.341Z,100639.76
2018-03-03T13:29:22.056Z,100634.19
2018-03-03T13:31:49.748Z,100637.65
2018-03-03T13:34:17.533Z,100637.65
2018-03-03T13:36:45.301Z,100633.76
2018-03-03T13:39:13.020Z,100625.62
2018-03-03T13:41:40.729Z,100631.91
2018-03-03T13:44:08.445Z,100635.66
2018-03-03T13:46:36.161Z,100630.57
2018-03-03T13:49:03.920Z,100634.82
2018-03-03T13:51:31.684Z,100625.11
2018-03-03T13:53:59.405Z,100626.38
2018-03-03T13:56:27.120Z,100624.75
2018-03-03T13:58:54.880Z,100621.94
2018-03-03T14:01:22.605Z,100616.84
2018-03-03T14:03:50.412Z,100619.83
2018-03-03T14:06:18.181Z,100620.13
2018-03-03T14:08:45.877Z,100620.49
2018-03-03T14:11:13.693Z,100611.91
2018-03-03T14:13:41.410Z,100612.31
2018-03-03T14:16:09.205Z,100614.53
2018-03-03T14:18:36.910Z,100620.45
2018-03-03T14:21:04.638Z,100608.47
2018-03-03T14:23:32.338Z,100614.39
2018-03-03T14:26:00.102Z,100618.20
2018-03-03T14:28:27.860Z,100606.36
2018-03-03T14:30:55.618Z,100610.64
2018-03-03T14:33:23.395Z,100611.48
2018-03-03T14:35:51.095Z,100607.59
2018-03-03T14:38:18.924Z,100615.52
2018-03-03T14:40:46.616Z,100615.82
2018-03-03T14:43:14.345Z,100613.17
2018-03-03T14:45:42.124Z,100605.87
2018-03-03T14:48:09.849Z,100611.32
2018-03-03T14:50:37.569Z,100609.00
2018-03-03T14:53:05.316Z,100609.73
2018-03-03T14:55:33.082Z,100608.42
2018-03-03T14:58:00.840Z,100600.69
2018-03-03T15:00:28.533Z,100600.69
2018-03-03T15:02:56.364Z,100595.13
2018-03-03T15:05:24.140Z,100604.00
2018-03-03T15:07:51.905Z,100609.09
2018-03-03T15:10:19.673Z,100606.11
2018-03-03T15:12:47.432Z,100608.19
2018-03-03T15:15:15.154Z,100606.00
2018-03-03T15:17:42.843Z,100608.59
2018-03-03T15:20:10.564Z,100610.73
2018-03-03T15:22:38.294Z,100614.51
2018-03-03T15:25:06.008Z,100604.26
2018-03-03T15:27:33.720Z,100613.45
2018-03-03T15:30:01.485Z,100618.73
2018-03-03T15:32:29.204Z,100610.97
2018-03-03T15:34:57.021Z,100612.06
2018-03-03T15:37:24.713Z,100611.01
2018-03-03T15:39:52.448Z,100607.05
2018-03-03T15:42:20.165Z,100613.16
2018-03-03T15:44:47.861Z,100609.97
2018-03-03T15:47:15.651Z,100614.84
2018-03-03T15:49:43.410Z,100617.64
2018-03-03T15:52:11.120Z,100613.64
2018-03-03T15:54:38.820Z,100619.78
2018-03-03T15:57:06.545Z,100622.08
2018-03-03T15:59:34.247Z,100624.33
2018-03-03T16:02:01.970Z,100621.49
2018-03-03T16:04:29.668Z,100626.69
2018-03-03T16:06:57.476Z,100628.13
2018-03-03T16:09:25.229Z,100621.05
2018-03-03T16:11:52.955Z,100623.73
2018-03-03T16:14:20.652Z,100627.69
2018-03-03T16:16:48.369Z,100629.05
2018-03-03T16:19:16.067Z,100622.48
2018-03-03T16:21:43.800Z,100625.88
2018-03-03T16:24:11.495Z,100629.39
2018-03-03T16:26:39.245Z,100624.41
2018-03-03T16:29:07.030Z,100628.39
2018-03-03T16:31:34.809Z,100623.44
2018-03-03T16:34:02.510Z,100625.33
2018-03-03T16:36:30.204Z,100628.36
2018-03-03T16:38:58.017Z,100626.30
2018-03-03T16:41:26.376Z,100633.97
2018-03-03T16:43:54.100Z,100631.05
2018-03-03T16:46:21.814Z,100631.54
2018-03-03T16:48:49.577Z,100639.25
2018-03-03T16:51:17.269Z,100638.94
2018-03-03T16:53:44.991Z,100647.54
2018-03-03T16:56:12.680Z,100642.16
2018-03-03T16:58:40.396Z,100645.13
2018-03-03T17:01:08.097Z,100647.00
2018-03-03T17:03:35.856Z,100641.93
2018-03-03T17:06:03.625Z,100643.67
2018-03-03T17:08:31.388Z,100648.86
2018-03-03T17:10:59.153Z,100646.09
2018-03-03T17:13:26.872Z,100649.97
2018-03-03T17:15:54.569Z,100641.64
2018-03-03T17:18:22.289Z,100647.30
2018-03-03T17:20:49.986Z,100647.90
2018-03-03T17:23:17.709Z,100650.67
2018-03-03T17:25:45.410Z,100654.66
2018-03-03T17:28:13.129Z,100654.34
2018-03-03T17:30:40.820Z,100658.26
2018-03-03T17:33:08.612Z,100655.03
2018-03-03T17:35:36.494Z,100659.12
2018-03-03T17:38:04.889Z,100662.24
2018-03-03T17:40:32.653Z,100661.20
2018-03-03T17:43:00.422Z,100663.48
2018-03-03T17:45:28.186Z,100667.13
2018-03-03T17:47:55.944Z,100665.22
2018-03-03T17:50:23.708Z,100669.64
2018-03-03T17:52:51.405Z,100663.06
2018-03-03T17:55:19.140Z,100666.58
2018-03-03T17:57:46.833Z,100661.20
2018-03-03T18:00:14.569Z,100665.16
2018-03-03T18:02:42.584Z,100665.78
2018-03-03T18:05:10.297Z,100675.36
2018-03-03T18:07:38.009Z,100674.31
2018-03-03T18:10:05.724Z,100676.55
2018-03-03T18:12:36.367Z,100668.70
2018-03-03T18:15:04.084Z,100682.34
2018-03-03T18:17:31.775Z,100680.03
2018-03-03T18:19:59.551Z,100678.98
2018-03-03T18:22:27.329Z,100688.91
2018-03-03T18:24:55.093Z,100683.11
2018-03-03T18:27:22.784Z,100685.38
2018-03-03T18:29:50.520Z,100685.65
2018-03-03T18:32:18.216Z,100687.57
2018-03-03T18:34:45.913Z,100690.77
2018-03-03T18:37:13.632Z,100692.30
2018-03-03T18:39:41.328Z,100693.30
2018-03-03T18:42:09.045Z,100693.83
2018-03-03T18:44:36.807Z,100698.59
2018-03-03T18:47:04.573Z,100698.37
2018-03-03T18:49:32.265Z,100694.67
2018-03-03T18:51:59.982Z,100696.50
2018-03-03T18:54:27.673Z,100695.76
2018-03-03T18:56:55.396Z,100702.65
2018-03-03T18:59:23.094Z,100702.95
2018-03-03T19:01:50.860Z,100708.19
2018-03-03T19:04:18.573Z,100709.59
2018-03-03T19:06:46.288Z,100711.02
2018-03-03T19:09:14.055Z,100706.48
2018-03-03T19:11:41.748Z,100710.05
2018-03-03T19:14:09.480Z,100714.94
2018-03-03T19:16:37.174Z,100711.61
2018-03-03T19:19:04.904Z,100711.83
2018-03-03T19:21:32.677Z,100712.79
2018-03-03T19:24:00.437Z,100722.38
2018-03-03T19:26:28.138Z,100717.83
2018-03-03T19:28:55.862Z,100715.02
2018-03-03T19:31:23.561Z,100713.84
2018-03-03T19:33:51.401Z,100717.72
2018-03-03T19:36:19.169Z,100718.70
2018-03-03T19:38:46.901Z,100725.98
2018-03-03T19:41:14.597Z,100732.89
2018-03-03T19:43:42.357Z,100728.73
2018-03-03T19:46:10.130Z,100731.34
2018-03-03T19:48:37.889Z,100733.59
2018-03-03T19:51:05.621Z,100729.48
2018-03-03T19:53:33.425Z,100729.25
2018-03-03T19:56:01.186Z,100732.29
2018-03-03T19:58:28.886Z,100724.03
2018-03-03T20:00:56.605Z,100728.77
2018-03-03T20:03:24.381Z,100734.03
2018-03-03T20:05:52.145Z,100731.32
2018-03-03T20:08:19.844Z,100738.23
2018-03-03T20:10:47.577Z,100731.23
2018-03-03T20:13:15.337Z,100727.12
2018-03-03T20:15:43.101Z,100736.13
2018-03-03T20:18:10.797Z,100737.02
2018-03-03T20:20:38.553Z,100739.22
2018-03-03T20:23:06.301Z,100745.28
2018-03-03T20:25:34.061Z,100750.09
2018-03-03T20:28:01.781Z,100754.05
2018-03-03T20:30:29.492Z,100751.17
2018-03-03T20:32:57.208Z,100751.34
2018-03-03T20:35:24.897Z,100749.45
2018-03-03T20:37:52.689Z,100752.36
2018-03-03T20:40:20.385Z,100751.48
2018-03-03T20:42:48.218Z,100754.78
2018-03-03T20:45:16.394Z,100752.95
2018-03-03T20:47:44.121Z,100759.06
2018-03-03T20:50:11.817Z,100755.97
2018-03-03T20:52:39.590Z,100755.16
2018-03-03T20:55:07.281Z,100749.81
2018-03-03T20:57:35.002Z,100753.16
2018-03-03T21:00:02.779Z,100750.26
2018-03-03T21:02:30.512Z,100755.74
2018-03-03T21:04:58.205Z,100756.33
2018-03-03T21:07:25.901Z,100763.18
2018-03-03T21:09:53.641Z,100761.62
2018-03-03T21:15:15.897Z,100756.67
2018-03-03T21:17:43.661Z,100756.38
2018-03-03T21:20:11.376Z,100755.66
2018-03-03T21:22:39.090Z,100760.45
2018-03-03T21:25:06.805Z,100764.87
2018-03-03T21:27:34.506Z,100761.71
2018-03-03T21:30:02.216Z,100763.59
2018-03-03T21:32:29.908Z,100761.76
2018-03-03T21:34:57.713Z,100768.83
2018-03-03T21:37:25.482Z,100775.95
2018-03-03T21:39:53.208Z,100775.00
2018-03-03T21:42:20.932Z,100773.68
2018-03-03T21:44:48.668Z,100770.28
2018-03-03T21:47:16.441Z,100777.32
2018-03-03T21:49:44.136Z,100776.83
2018-03-03T21:52:11.961Z,100777.21
2018-03-03T21:54:39.729Z,100777.45
2018-03-03T21:57:07.502Z,100774.73
2018-03-03T21:59:35.261Z,100778.76
2018-03-03T22:02:03.030Z,100777.83
2018-03-03T22:04:30.720Z,100767.55
2018-03-03T22:06:58.438Z,100775.30
2018-03-03T22:09:26.127Z,100782.58
2018-03-03T22:11:53.862Z,100794.54
2018-03-03T22:14:21.557Z,100792.73
2018-03-03T22:16:49.317Z,100790.45
2018-03-03T22:19:17.008Z,100796.17
2018-03-03T22:21:44.742Z,100795.53
2018-03-03T22:24:12.500Z,100799.94
2018-03-03T22:26:40.274Z,100802.25
2018-03-03T22:29:07.988Z,100809.17
2018-03-03T22:31:35.696Z,100810.67
2018-03-03T22:34:03.418Z,100804.94
2018-03-03T22:36:31.129Z,100806.77
2018-03-03T22:38:58.884Z,100813.16
2018-03-03T22:41:26.581Z,100813.87
2018-03-03T22:43:54.303Z,100816.48
2018-03-03T22:46:21.993Z,100818.35
2018-03-03T22:48:49.736Z,100815.95
2018-03-03T22:51:17.479Z,100814.05
2018-03-03T22:53:45.272Z,100814.30
2018-03-03T22:56:13.040Z,100819.51
2018-03-03T22:58:41.172Z,100820.56
2018-03-03T23:01:08.981Z,100819.09
2018-03-03T23:03:36.677Z,100823.87
2018-03-03T23:06:04.392Z,100825.66
2018-03-03T23:08:32.172Z,100829.70
2018-03-03T23:10:59.946Z,100826.98
2018-03-03T23:13:27.641Z,100825.81
2018-03-03T23:15:55.359Z,100830.58
2018-03-03T23:18:23.053Z,100835.80
2018-03-03T23:20:50.906Z,100832.58
2018-03-03T23:23:18.596Z,100830.58
2018-03-03T23:25:46.328Z,100831.57
2018-03-03T23:28:14.102Z,100825.02
2018-03-03T23:30:41.795Z,100829.08
2018-03-03T23:33:09.516Z,100830.07
2018-03-03T23:35:37.216Z,100835.28
2018-03-03T23:38:04.953Z,100827.46
2018-03-03T23:40:32.689Z,100824.64
2018-03-03T23:43:00.480Z,100823.70
2018-03-03T23:45:28.244Z,100825.25
2018-03-03T23:47:56.013Z,100825.86
2018-03-03T23:50:23.704Z,100823.91
2018-03-03T23:52:51.397Z,100822.81
2018-03-03T23:55:19.209Z,100820.09
2018-03-03T23:57:46.901Z,100823.97
